Time;durP1;ratioP1;P1;durP2;ratioP2;P2;SDS_P1;SDS_P2;PMS_P1;PMS_P2;Temp;Humidity;BMP_temperature;BMP_pressure;BME280_temperature;BME280_humidity;BME280_pressure;Samples;Min_cycle;Max_cycle;Signal;HPM_P1;HPM_P2
2023/06/30 00:01:48;;;;;;;10.55;7.57;;;;;21.00;98177.00;;;;5053553;28;20502;-68
2023/06/30 00:04:16;;;;;;;9.82;7.78;;;;;21.00;98180.00;;;;5053419;28;20045;-66
2023/06/30 00:06:44;;;;;;;8.90;7.85;;;;;21.00;98175.00;;;;5052594;28;20589;-66
2023/06/30 00:09:11;;;;;;;11.35;7.57;;;;;20.90;98179.00;;;;5052428;28;20143;-66
2023/06/30 00:11:38;;;;;;;9.05;7.80;;;;;20.90;98177.00;;;;5053554;28;20116;-66
2023/06/30 00:14:05;;;;;;;11.95;8.15;;;;;21.00;98179.00;;;;5052711;28;20029;-66
2023/06/30 00:16:31;;;;;;;9.48;7.35;;;;;21.10;98171.00;;;;5053571;28;20076;-66
2023/06/30 00:18:59;;;;;;;11.15;8.60;;;;;21.20;98172.00;;;;5053618;28;20044;-66
2023/06/30 00:21:26;;;;;;;13.45;8.73;;;;;21.20;98170.00;;;;5052112;28;20143;-66
2023/06/30 00:23:52;;;;;;;10.10;8.30;;;;;21.10;98161.00;;;;5052334;28;20045;-66
2023/06/30 00:26:19;;;;;;;10.05;7.85;;;;;21.00;98165.00;;;;5052374;28;20144;-66
2023/06/30 00:28:45;;;;;;;10.32;8.35;;;;;20.90;98164.00;;;;5052087;28;20076;-66
2023/06/30 00:31:12;;;;;;;12.55;9.02;;;;;20.80;98167.00;;;;5051816;28;20049;-66
2023/06/30 00:33:39;;;;;;;10.32;8.43;;;;;20.80;98163.00;;;;5052280;28;20049;-66
2023/06/30 00:36:05;;;;;;;10.88;8.00;;;;;20.90;98171.00;;;;5052104;28;20040;-65
2023/06/30 00:38:33;;;;;;;11.15;7.78;;;;;21.00;98165.00;;;;5051856;28;20045;-66
2023/06/30 00:40:59;;;;;;;10.82;8.13;;;;;21.10;98166.00;;;;5035044;28;20048;-66
2023/06/30 00:43:26;;;;;;;9.65;7.78;;;;;21.20;98168.00;;;;5051560;28;20048;-66
2023/06/30 00:45:53;;;;;;;10.40;7.82;;;;;21.30;98168.00;;;;5051214;28;20048;-63
2023/06/30 00:48:19;;;;;;;9.38;7.75;;;;;21.30;98168.00;;;;5052633;28;20080;-66
2023/06/30 00:50:46;;;;;;;9.65;7.57;;;;;21.20;98174.00;;;;5051575;28;20079;-64
2023/06/30 00:53:13;;;;;;;12.80;8.07;;;;;21.20;98172.00;;;;5051584;28;20049;-64
2023/06/30 00:55:40;;;;;;;9.85;7.68;;;;;21.30;98170.00;;;;5051823;28;20344;-64
2023/06/30 00:58:08;;;;;;;10.30;8.20;;;;;21.30;98175.00;;;;5051551;28;20041;-64
2023/06/30 01:00:35;;;;;;;11.13;7.90;;;;;21.20;98166.00;;;;5051279;28;20053;-66
2023/06/30 01:03:27;;;;;;;10.25;7.82;;;;;21.30;98157.00;;;;5034872;28;20502;-65
2023/06/30 01:06:00;;;;;;;10.90;7.25;;;;;21.30;98156.00;;;;5051141;28;20048;-66
2023/06/30 01:08:36;;;;;;;9.17;7.37;;;;;21.40;98156.00;;;;5052347;28;20095;-65
2023/06/30 01:11:03;;;;;;;9.43;7.82;;;;;21.40;98144.00;;;;5051143;28;20501;-65
2023/06/30 01:13:31;;;;;;;10.00;8.23;;;;;21.30;98141.00;;;;5052371;28;20151;-65
2023/06/30 01:15:58;;;;;;;9.75;7.45;;;;;21.10;98144.00;;;;5052380;28;20111;-65
2023/06/30 01:18:26;;;;;;;9.70;8.35;;;;;20.90;98142.00;;;;5051066;28;20072;-66
2023/06/30 01:20:53;;;;;;;9.23;8.27;;;;;20.70;98143.00;;;;5050962;28;20045;-65
2023/06/30 01:23:33;;;;;;;9.57;8.02;;;;;20.60;98140.00;;;;5051008;28;20115;-65
2023/06/30 01:26:01;;;;;;;12.73;8.65;;;;;20.60;98142.00;;;;5034314;28;20041;-65
2023/06/30 01:28:29;;;;;;;11.68;8.43;;;;;20.70;98134.00;;;;5050732;28;20053;-65
2023/06/30 01:30:56;;;;;;;10.52;8.32;;;;;20.80;98129.00;;;;5051982;28;20044;-65
2023/06/30 01:33:23;;;;;;;11.75;8.32;;;;;20.80;98135.00;;;;5051121;28;20576;-65
2023/06/30 01:35:50;;;;;;;11.63;7.45;;;;;21.00;98139.00;;;;5050705;28;20045;-65
2023/06/30 01:38:16;;;;;;;11.00;8.02;;;;;21.00;98142.00;;;;5050758;28;20053;-65
2023/06/30 01:40:44;;;;;;;9.32;7.80;;;;;20.90;98137.00;;;;5050536;28;20143;-65
2023/06/30 01:43:12;;;;;;;10.43;7.90;;;;;20.80;98139.00;;;;5052107;28;20045;-65
2023/06/30 01:45:40;;;;;;;10.32;8.07;;;;;20.80;98144.00;;;;5050889;28;20073;-65
2023/06/30 01:48:08;;;;;;;10.98;7.85;;;;;20.80;98140.00;;;;5050948;28;20136;-66
2023/06/30 01:50:35;;;;;;;8.85;7.60;;;;;20.90;98134.00;;;;5050649;28;20041;-66
2023/06/30 01:53:01;;;;;;;8.88;7.65;;;;;20.90;98141.00;;;;5052212;28;20041;-65
2023/06/30 01:55:29;;;;;;;10.68;7.78;;;;;21.00;98150.00;;;;5052214;28;20034;-66
2023/06/30 01:57:55;;;;;;;9.93;8.25;;;;;21.10;98150.00;;;;5051031;28;20049;-66
2023/06/30 02:00:22;;;;;;;8.68;7.78;;;;;21.20;98143.00;;;;5050618;28;20079;-66
2023/06/30 02:02:48;;;;;;;10.02;7.90;;;;;21.10;98142.00;;;;5051822;28;20076;-66
2023/06/30 02:05:15;;;;;;;10.48;8.40;;;;;21.10;98140.00;;;;5050812;28;20052;-66
2023/06/30 02:07:42;;;;;;;12.00;8.23;;;;;21.10;98136.00;;;;5050540;28;20077;-66
2023/06/30 02:10:09;;;;;;;10.63;8.25;;;;;21.10;98141.00;;;;5050577;28;20049;-66
2023/06/30 02:12:35;;;;;;;10.25;8.70;;;;;21.10;98141.00;;;;5050797;28;20045;-66
2023/06/30 02:15:03;;;;;;;10.10;8.25;;;;;21.10;98133.00;;;;5051523;28;20057;-66
2023/06/30 02:17:32;;;;;;;11.07;8.43;;;;;21.10;98133.00;;;;5055229;28;20410;-66
2023/06/30 02:20:00;;;;;;;11.52;9.13;;;;;21.10;98139.00;;;;5056635;28;20080;-66
2023/06/30 02:22:27;;;;;;;13.75;8.65;;;;;21.10;98141.00;;;;5055601;28;20045;-64
2023/06/30 02:24:56;;;;;;;11.65;8.30;;;;;21.10;98142.00;;;;5055854;28;20073;-66
2023/06/30 02:27:23;;;;;;;11.82;8.85;;;;;21.10;98152.00;;;;5057169;28;20445;-64
2023/06/30 02:29:50;;;;;;;11.98;8.98;;;;;21.10;98156.00;;;;5056538;28;20041;-66
2023/06/30 02:32:17;;;;;;;14.35;9.57;;;;;21.10;98160.00;;;;5056718;28;20123;-64
2023/06/30 02:34:44;;;;;;;18.30;10.15;;;;;21.00;98165.00;;;;5039441;28;20076;-64
2023/06/30 02:37:11;;;;;;;17.65;9.77;;;;;21.00;98154.00;;;;5054597;28;20045;-64
2023/06/30 02:39:37;;;;;;;16.70;10.00;;;;;21.00;98142.00;;;;5055631;28;20122;-64
2023/06/30 02:42:04;;;;;;;14.88;11.05;;;;;20.80;98127.00;;;;5055108;28;20147;-63
2023/06/30 02:44:31;;;;;;;20.35;10.48;;;;;20.50;98135.00;;;;5055548;28;20473;-63
2023/06/30 02:46:58;;;;;;;15.15;10.43;;;;;20.60;98141.00;;;;5055423;28;20506;-64
2023/06/30 02:49:24;;;;;;;13.43;9.60;;;;;20.80;98137.00;;;;5054054;28;20145;-63
2023/06/30 02:51:51;;;;;;;14.63;10.60;;;;;20.90;98137.00;;;;5054422;28;20075;-64
2023/06/30 02:54:18;;;;;;;15.85;10.65;;;;;20.80;98140.00;;;;5054225;28;20049;-64
2023/06/30 02:56:45;;;;;;;15.45;10.18;;;;;20.90;98142.00;;;;5054390;28;20053;-64
2023/06/30 02:59:13;;;;;;;13.93;9.63;;;;;21.00;98139.00;;;;5054521;28;20047;-64
2023/06/30 03:01:41;;;;;;;17.27;10.07;;;;;21.10;98146.00;;;;5036922;28;20045;-64
2023/06/30 03:04:07;;;;;;;17.65;10.50;;;;;21.10;98146.00;;;;5053848;28;20068;-65
2023/06/30 03:06:36;;;;;;;15.18;10.43;;;;;21.00;98152.00;;;;5053690;28;20041;-64
2023/06/30 03:09:03;;;;;;;15.05;11.15;;;;;20.90;98154.00;;;;5053058;28;20131;-65
2023/06/30 03:11:31;;;;;;;16.73;11.27;;;;;20.90;98144.00;;;;5053371;28;20045;-65
2023/06/30 03:13:57;;;;;;;18.10;10.68;;;;;20.90;98151.00;;;;5054566;28;20041;-64
2023/06/30 03:16:29;;;;;;;17.10;11.90;;;;;20.80;98144.00;;;;5053277;28;20048;-65
2023/06/30 03:18:56;;;;;;;17.33;11.65;;;;;20.60;98150.00;;;;5052952;28;20049;-64
2023/06/30 03:21:23;;;;;;;19.27;11.77;;;;;20.60;98144.00;;;;5053316;28;20490;-65
2023/06/30 03:23:49;;;;;;;17.42;11.90;;;;;20.50;98139.00;;;;5052950;28;20135;-65
2023/06/30 03:26:16;;;;;;;14.27;11.55;;;;;20.40;98136.00;;;;5052729;28;20124;-64
2023/06/30 03:28:43;;;;;;;14.85;11.13;;;;;20.30;98128.00;;;;5052942;28;20064;-65
2023/06/30 03:31:09;;;;;;;16.77;11.40;;;;;20.20;98132.00;;;;5052903;28;20106;-64
2023/06/30 03:33:36;;;;;;;20.70;12.02;;;;;20.00;98123.00;;;;5052892;28;20049;-64
2023/06/30 03:36:03;;;;;;;20.45;12.15;;;;;19.90;98129.00;;;;5052933;28;20406;-65
2023/06/30 03:38:30;;;;;;;17.27;12.23;;;;;19.80;98128.00;;;;5053907;28;20115;-65
2023/06/30 03:40:57;;;;;;;17.33;11.23;;;;;19.80;98136.00;;;;5052708;28;20464;-65
2023/06/30 03:43:28;;;;;;;17.75;11.68;;;;;20.00;98135.00;;;;5052877;28;20041;-65
2023/06/30 03:45:54;;;;;;;19.52;11.50;;;;;20.20;98131.00;;;;5053117;28;20156;-64
2023/06/30 03:48:21;;;;;;;15.57;11.65;;;;;20.30;98119.00;;;;5052584;28;20057;-65
2023/06/30 03:50:51;;;;;;;19.83;12.25;;;;;20.40;98122.00;;;;5036364;28;20052;-64
2023/06/30 03:53:20;;;;;;;17.85;12.38;;;;;20.20;98119.00;;;;5052670;28;20049;-64
2023/06/30 03:55:46;;;;;;;16.25;11.38;;;;;20.00;98110.00;;;;5053619;28;20497;-65
2023/06/30 03:58:13;;;;;;;14.55;11.73;;;;;20.00;98113.00;;;;5052287;28;20079;-65
2023/06/30 04:00:40;;;;;;;15.15;11.10;;;;;20.00;98112.00;;;;5053534;28;20044;-65
2023/06/30 04:03:07;;;;;;;18.35;12.30;;;;;20.00;98114.00;;;;5052367;28;20139;-65
2023/06/30 04:05:33;;;;;;;14.32;11.48;;;;;20.20;98117.00;;;;5052307;28;20044;-65
2023/06/30 04:08:00;;;;;;;17.98;12.93;;;;;20.30;98124.00;;;;5053309;28;20111;-65
2023/06/30 04:10:27;;;;;;;18.55;11.63;;;;;20.30;98128.00;;;;5052266;28;20478;-65
2023/06/30 04:12:53;;;;;;;15.70;11.40;;;;;20.20;98128.00;;;;5053681;28;20119;-65
2023/06/30 04:15:20;;;;;;;20.00;11.63;;;;;20.20;98128.00;;;;5052239;28;20049;-65
2023/06/30 04:17:46;;;;;;;21.63;12.23;;;;;20.30;98128.00;;;;5052257;28;20049;-65
2023/06/30 04:20:15;;;;;;;22.38;11.65;;;;;20.40;98130.00;;;;5052508;28;20056;-66
2023/06/30 04:22:42;;;;;;;16.27;11.73;;;;;20.50;98130.00;;;;5052370;28;20045;-66
2023/06/30 04:25:10;;;;;;;17.40;12.02;;;;;20.60;98132.00;;;;5053840;28;20033;-65
2023/06/30 04:27:37;;;;;;;22.88;11.68;;;;;20.60;98140.00;;;;5053593;28;20041;-65
2023/06/30 04:30:08;;;;;;;14.15;11.35;;;;;20.80;98128.00;;;;5053080;28;20051;-65
2023/06/30 04:32:34;;;;;;;15.55;11.75;;;;;20.80;98134.00;;;;5051927;28;20417;-66
2023/06/30 04:35:01;;;;;;;17.67;11.95;;;;;20.80;98133.00;;;;5053005;28;20150;-65
2023/06/30 04:37:31;;;;;;;16.08;11.70;;;;;20.90;98130.00;;;;5053040;28;20098;-65
2023/06/30 04:39:58;;;;;;;16.20;12.40;;;;;20.90;98129.00;;;;5052523;28;20045;-65
2023/06/30 04:42:27;;;;;;;15.73;12.07;;;;;20.90;98129.00;;;;5052980;28;20484;-66
2023/06/30 04:44:55;;;;;;;17.95;12.93;;;;;20.80;98128.00;;;;5052851;28;20398;-66
2023/06/30 04:47:22;;;;;;;22.35;12.48;;;;;20.90;98128.00;;;;5051542;28;20498;-66
2023/06/30 04:49:48;;;;;;;18.55;13.68;;;;;21.10;98129.00;;;;5052680;28;20045;-66
2023/06/30 04:52:15;;;;;;;17.00;12.30;;;;;21.20;98133.00;;;;5052991;28;20079;-66
2023/06/30 04:54:42;;;;;;;17.00;13.98;;;;;21.30;98130.00;;;;5052644;28;20049;-66
2023/06/30 04:57:09;;;;;;;39.50;29.73;;;;;21.30;98130.00;;;;5051910;28;20047;-66
2023/06/30 04:59:36;;;;;;;15.43;12.02;;;;;21.30;98139.00;;;;5052752;28;20120;-66
2023/06/30 05:02:03;;;;;;;18.92;13.25;;;;;21.30;98144.00;;;;5053300;28;20052;-66
2023/06/30 05:04:30;;;;;;;16.92;12.57;;;;;21.20;98132.00;;;;5054115;28;20044;-66
2023/06/30 05:06:57;;;;;;;14.48;11.75;;;;;21.20;98147.00;;;;5036170;28;20501;-65
2023/06/30 05:09:23;;;;;;;18.60;12.63;;;;;21.20;98140.00;;;;5053164;28;20129;-66
2023/06/30 05:11:50;;;;;;;15.30;12.02;;;;;21.20;98144.00;;;;5052056;28;20399;-66
2023/06/30 05:14:17;;;;;;;17.52;13.15;;;;;21.30;98152.00;;;;5052999;28;20047;-66
2023/06/30 05:16:43;;;;;;;15.68;12.55;;;;;21.30;98152.00;;;;5053299;28;20065;-66
2023/06/30 05:19:10;;;;;;;15.88;12.55;;;;;21.30;98147.00;;;;5052965;28;20047;-65
2023/06/30 05:21:37;;;;;;;18.63;12.95;;;;;21.40;98155.00;;;;5051998;28;20049;-65
2023/06/30 05:24:04;;;;;;;19.17;12.90;;;;;21.40;98151.00;;;;5052245;28;20057;-65
2023/06/30 05:26:30;;;;;;;15.43;12.80;;;;;21.50;98147.00;;;;5053606;28;20037;-65
2023/06/30 05:28:57;;;;;;;21.45;12.40;;;;;21.60;98154.00;;;;5052201;28;20509;-65
2023/06/30 05:31:31;;;;;;;18.27;13.30;;;;;21.80;98152.00;;;;5052115;28;20053;-65
2023/06/30 05:33:57;;;;;;;17.25;13.10;;;;;21.90;98158.00;;;;5053380;28;20041;-64
2023/06/30 05:36:24;;;;;;;21.38;14.00;;;;;21.90;98162.00;;;;5053119;28;20047;-65
2023/06/30 05:38:51;;;;;;;21.45;15.45;;;;;21.80;98159.00;;;;5053414;28;20071;-65
2023/06/30 05:41:17;;;;;;;20.45;14.55;;;;;21.90;98161.00;;;;5054187;28;20132;-65
2023/06/30 05:43:44;;;;;;;20.63;13.93;;;;;21.90;98165.00;;;;5053675;28;20057;-64
2023/06/30 05:46:10;;;;;;;19.77;13.70;;;;;21.90;98160.00;;;;5054489;28;20073;-65
2023/06/30 05:48:37;;;;;;;20.17;14.77;;;;;21.90;98158.00;;;;5053273;28;20076;-65
2023/06/30 05:51:04;;;;;;;21.50;15.13;;;;;21.80;98156.00;;;;5056624;28;20099;-65
2023/06/30 05:53:30;;;;;;;19.08;15.05;;;;;21.70;98161.00;;;;5057230;28;20339;-65
2023/06/30 05:55:57;;;;;;;21.20;14.95;;;;;21.70;98172.00;;;;5056958;28;20044;-66
2023/06/30 05:58:24;;;;;;;21.85;16.05;;;;;21.80;98168.00;;;;5058239;28;20044;-66
2023/06/30 06:00:51;;;;;;;23.05;15.80;;;;;21.90;98157.00;;;;5060607;28;20106;-66
2023/06/30 06:03:18;;;;;;;23.00;16.65;;;;;22.00;98157.00;;;;5060227;28;20108;-65
2023/06/30 06:05:45;;;;;;;20.27;16.02;;;;;22.00;98167.00;;;;5062890;28;20045;-66
2023/06/30 06:08:12;;;;;;;22.40;17.73;;;;;22.10;98156.00;;;;5062269;28;20045;-66
2023/06/30 06:10:39;;;;;;;21.00;16.83;;;;;22.20;98162.00;;;;5063202;28;20045;-65
2023/06/30 06:13:05;;;;;;;25.95;18.02;;;;;22.20;98163.00;;;;5061759;28;20147;-66
2023/06/30 06:15:32;;;;;;;27.25;19.17;;;;;22.20;98171.00;;;;5060749;28;20083;-66
2023/06/30 06:17:58;;;;;;;26.90;19.33;;;;;22.30;98167.00;;;;5063522;28;20375;-66
2023/06/30 06:20:25;;;;;;;26.42;19.90;;;;;22.40;98159.00;;;;5046836;28;20053;-66
2023/06/30 06:22:52;;;;;;;27.70;20.23;;;;;22.60;98157.00;;;;5060312;28;20102;-66
2023/06/30 06:25:18;;;;;;;33.78;20.17;;;;;22.70;98170.00;;;;5042727;28;20518;-66
2023/06/30 06:27:45;;;;;;;35.15;22.70;;;;;22.80;98168.00;;;;5059195;28;20051;-66
2023/06/30 06:30:12;;;;;;;36.03;24.20;;;;;22.90;98169.00;;;;5061247;28;20386;-66
2023/06/30 06:32:38;;;;;;;33.42;24.08;;;;;23.00;98172.00;;;;5060046;28;20037;-65
2023/06/30 06:35:05;;;;;;;39.13;25.67;;;;;23.10;98176.00;;;;5056758;28;20053;-66
2023/06/30 06:37:32;;;;;;;35.70;25.55;;;;;23.10;98181.00;;;;5058305;28;20044;-66
2023/06/30 06:39:58;;;;;;;33.40;24.90;;;;;23.10;98193.00;;;;5058433;28;20045;-66
2023/06/30 06:42:25;;;;;;;38.97;27.00;;;;;23.20;98193.00;;;;5057705;28;20127;-66
2023/06/30 06:44:51;;;;;;;37.58;26.17;;;;;23.10;98192.00;;;;5040209;28;20577;-65
2023/06/30 06:47:56;;;;;;;42.55;28.67;;;;;23.00;98199.00;;;;5060257;28;20041;-66
2023/06/30 06:50:22;;;;;;;42.25;28.80;;;;;22.80;98203.00;;;;5058296;28;20060;-66
2023/06/30 06:52:49;;;;;;;45.92;29.75;;;;;22.60;98206.00;;;;5058986;28;20049;-66
2023/06/30 06:55:16;;;;;;;52.15;32.55;;;;;22.50;98207.00;;;;5061792;28;20142;-65
2023/06/30 06:57:42;;;;;;;45.30;31.92;;;;;22.40;98206.00;;;;5059319;28;20049;-66
2023/06/30 07:00:09;;;;;;;46.63;31.48;;;;;22.30;98207.00;;;;5057707;28;20049;-66
2023/06/30 07:02:36;;;;;;;49.33;31.45;;;;;22.30;98205.00;;;;5059661;28;20048;-64
2023/06/30 07:05:03;;;;;;;42.85;29.42;;;;;22.30;98213.00;;;;5058840;28;20056;-66
2023/06/30 07:07:30;;;;;;;48.35;29.88;;;;;22.40;98207.00;;;;5058682;28;20045;-67
2023/06/30 07:09:59;;;;;;;45.05;31.05;;;;;22.30;98209.00;;;;5060706;28;20106;-66
2023/06/30 07:12:25;;;;;;;46.15;29.50;;;;;22.20;98207.00;;;;5056751;28;20049;-66
2023/06/30 07:14:52;;;;;;;42.00;28.45;;;;;22.00;98219.00;;;;5057404;28;20120;-66
2023/06/30 07:17:19;;;;;;;47.72;28.63;;;;;21.90;98219.00;;;;5056346;28;20458;-66
2023/06/30 07:19:45;;;;;;;62.85;30.50;;;;;21.70;98211.00;;;;5056263;28;20053;-66
2023/06/30 07:22:12;;;;;;;81.00;34.65;;;;;21.70;98217.00;;;;5055544;28;20071;-65
2023/06/30 07:24:38;;;;;;;39.97;24.45;;;;;21.70;98218.00;;;;5041484;28;20532;-64
2023/06/30 07:27:09;;;;;;;38.22;21.25;;;;;21.60;98222.00;;;;5062113;28;20041;-65
2023/06/30 07:29:36;;;;;;;31.48;19.88;;;;;21.60;98219.00;;;;5060050;28;20072;-65
2023/06/30 07:32:03;;;;;;;32.88;18.95;;;;;21.70;98221.00;;;;5060354;28;20041;-64
2023/06/30 07:34:33;;;;;;;45.60;18.92;;;;;21.80;98224.00;;;;5059528;28;20045;-65
2023/06/30 07:37:04;;;;;;;69.13;21.90;;;;;21.80;98232.00;;;;5056609;28;20045;-64
2023/06/30 07:39:32;;;;;;;28.95;13.07;;;;;21.80;98222.00;;;;5054663;28;20605;-64
2023/06/30 07:41:58;;;;;;;23.85;12.20;;;;;21.80;98222.00;;;;5054694;28;20450;-65
2023/06/30 07:44:25;;;;;;;16.60;11.65;;;;;22.00;98234.00;;;;5054744;28;20051;-64
2023/06/30 07:46:52;;;;;;;24.08;11.50;;;;;22.00;98221.00;;;;5055676;28;20040;-65
2023/06/30 07:49:18;;;;;;;22.70;12.13;;;;;21.90;98229.00;;;;5057897;28;20170;-64
2023/06/30 07:51:46;;;;;;;22.90;9.65;;;;;21.80;98234.00;;;;5056346;28;20053;-64
2023/06/30 07:54:15;;;;;;;40.40;13.18;;;;;21.70;98241.00;;;;5057989;28;20040;-65
2023/06/30 07:56:41;;;;;;;14.50;9.82;;;;;21.50;98247.00;;;;5054789;28;20106;-64
2023/06/30 07:59:08;;;;;;;111.55;20.42;;;;;21.50;98244.00;;;;5052745;28;20330;-64
2023/06/30 08:01:35;;;;;;;19.20;10.60;;;;;21.60;98247.00;;;;5053937;28;20041;-64
2023/06/30 08:04:02;;;;;;;70.72;16.63;;;;;21.50;98246.00;;;;5036101;28;20120;-65
2023/06/30 08:06:29;;;;;;;18.88;9.27;;;;;21.40;98246.00;;;;5052737;28;20498;-64
2023/06/30 08:08:55;;;;;;;96.13;19.92;;;;;21.40;98246.00;;;;5055884;28;20051;-65
2023/06/30 08:11:22;;;;;;;16.05;8.95;;;;;21.40;98245.00;;;;5056076;28;20045;-65
2023/06/30 08:13:48;;;;;;;67.22;14.23;;;;;21.50;98243.00;;;;5054494;28;20530;-65
2023/06/30 08:16:15;;;;;;;9.10;7.63;;;;;21.60;98246.00;;;;5056790;28;20565;-65
2023/06/30 08:18:42;;;;;;;41.08;10.45;;;;;21.60;98250.00;;;;5058192;28;20122;-65
2023/06/30 08:21:17;;;;;;;49.70;13.10;;;;;21.70;98250.00;;;;5058760;28;20045;-65
2023/06/30 08:23:45;;;;;;;70.15;15.00;;;;;21.70;98263.00;;;;5054980;28;20489;-65
2023/06/30 08:26:11;;;;;;;13.55;9.00;;;;;21.60;98258.00;;;;5053954;28;20041;-64
2023/06/30 08:28:38;;;;;;;10.90;8.65;;;;;21.50;98254.00;;;;5055201;28;20554;-65
2023/06/30 08:31:05;;;;;;;10.90;8.75;;;;;21.60;98247.00;;;;5054507;28;20079;-64
2023/06/30 08:33:31;;;;;;;15.30;9.52;;;;;21.80;98256.00;;;;5054728;28;20037;-64
2023/06/30 08:36:01;;;;;;;11.05;8.18;;;;;22.00;98256.00;;;;5053558;28;20585;-64
2023/06/30 08:38:28;;;;;;;11.10;8.73;;;;;22.10;98254.00;;;;5055054;28;20128;-64
2023/06/30 08:40:55;;;;;;;18.02;8.95;;;;;22.20;98254.00;;;;5054333;28;20081;-65
2023/06/30 08:43:22;;;;;;;8.85;7.85;;;;;22.10;98243.00;;;;5053137;28;20053;-65
2023/06/30 08:45:53;;;;;;;8.88;7.97;;;;;22.10;98242.00;;;;5055572;28;20102;-66
2023/06/30 08:48:22;;;;;;;11.55;8.25;;;;;22.20;98239.00;;;;5055161;28;20052;-66
2023/06/30 08:50:49;;;;;;;9.00;7.90;;;;;22.30;98232.00;;;;5055082;28;20041;-66
2023/06/30 08:53:17;;;;;;;30.75;10.48;;;;;22.30;98244.00;;;;5054329;28;20041;-66
2023/06/30 08:55:46;;;;;;;19.77;10.00;;;;;22.10;98259.00;;;;5054192;28;20557;-65
2023/06/30 08:58:13;;;;;;;10.93;9.75;;;;;21.80;98270.00;;;;5052670;28;20473;-66
2023/06/30 09:00:53;;;;;;;13.60;9.98;;;;;21.60;98264.00;;;;5053726;28;20037;-66
2023/06/30 09:03:21;;;;;;;33.45;12.05;;;;;21.60;98263.00;;;;5054041;28;20497;-66
2023/06/30 09:05:54;;;;;;;26.70;11.38;;;;;21.70;98250.00;;;;5053633;28;20100;-65
2023/06/30 09:08:31;;;;;;;20.52;9.52;;;;;21.80;98252.00;;;;5053648;28;20525;-66
2023/06/30 09:10:58;;;;;;;14.45;9.52;;;;;22.00;98257.00;;;;5054411;28;20044;-66
2023/06/30 09:13:26;;;;;;;10.63;8.32;;;;;22.10;98254.00;;;;5054399;28;20044;-63
2023/06/30 09:15:58;;;;;;;12.55;9.52;;;;;22.10;98260.00;;;;5052984;28;20499;-66
2023/06/30 09:18:25;;;;;;;8.52;7.65;;;;;22.00;98266.00;;;;5051570;28;20068;-66
2023/06/30 09:20:52;;;;;;;12.15;8.68;;;;;22.10;98274.00;;;;5051825;28;20073;-64
2023/06/30 09:23:19;;;;;;;9.30;7.05;;;;;22.00;98271.00;;;;5052842;28;20124;-65
2023/06/30 09:25:46;;;;;;;7.65;6.93;;;;;21.90;98265.00;;;;5053096;28;20037;-65
2023/06/30 09:28:14;;;;;;;8.15;7.30;;;;;21.90;98269.00;;;;5055129;28;20049;-65
2023/06/30 09:30:46;;;;;;;7.22;6.40;;;;;22.10;98273.00;;;;5054812;28;20437;-66
2023/06/30 09:33:14;;;;;;;6.60;5.90;;;;;22.20;98260.00;;;;5056082;28;20049;-66
2023/06/30 09:35:44;;;;;;;6.22;5.53;;;;;22.20;98264.00;;;;5055922;28;20041;-65
2023/06/30 09:38:21;;;;;;;73.85;13.05;;;;;22.30;98269.00;;;;5054480;28;20047;-65
2023/06/30 09:40:50;;;;;;;19.60;7.03;;;;;22.40;98265.00;;;;5054738;28;20048;-65
2023/06/30 09:43:18;;;;;;;12.25;6.50;;;;;22.50;98264.00;;;;5054243;28;20095;-66
2023/06/30 09:45:53;;;;;;;90.53;16.02;;;;;22.50;98268.00;;;;5054563;28;20123;-66
2023/06/30 09:48:19;;;;;;;14.43;6.60;;;;;22.60;98256.00;;;;5053143;28;20041;-65
2023/06/30 09:50:46;;;;;;;15.43;6.25;;;;;22.70;98260.00;;;;5053200;28;20041;-65
2023/06/30 09:53:19;;;;;;;18.50;7.00;;;;;22.60;98247.00;;;;5053139;28;20130;-65
2023/06/30 09:55:50;;;;;;;5.75;5.25;;;;;22.70;98250.00;;;;5051819;28;20049;-66
2023/06/30 09:58:18;;;;;;;75.97;12.38;;;;;22.80;98253.00;;;;5052861;28;20102;-65
2023/06/30 10:00:47;;;;;;;9.70;5.47;;;;;23.00;98264.00;;;;5053027;28;20037;-65
2023/06/30 10:03:16;;;;;;;13.52;5.97;;;;;23.00;98268.00;;;;5052649;28;20041;-65
2023/06/30 10:05:46;;;;;;;7.53;5.50;;;;;22.90;98269.00;;;;5051301;28;20076;-65
2023/06/30 10:08:14;;;;;;;11.50;6.03;;;;;22.90;98275.00;;;;5052074;28;20041;-65
2023/06/30 10:10:42;;;;;;;8.60;6.32;;;;;22.80;98280.00;;;;5051347;28;20068;-65
2023/06/30 10:13:11;;;;;;;6.88;5.72;;;;;22.70;98279.00;;;;5052667;28;20052;-65
2023/06/30 10:15:40;;;;;;;6.53;5.93;;;;;22.70;98289.00;;;;5052422;28;20049;-65
2023/06/30 10:18:12;;;;;;;7.10;6.40;;;;;22.50;98290.00;;;;5052306;28;20120;-65
2023/06/30 10:20:38;;;;;;;9.52;6.50;;;;;22.50;98294.00;;;;5050914;28;20057;-65
2023/06/30 10:23:19;;;;;;;7.18;6.47;;;;;22.50;98290.00;;;;5052137;28;20049;-65
2023/06/30 10:25:46;;;;;;;8.38;6.38;;;;;22.60;98289.00;;;;5052281;28;20048;-66
2023/06/30 10:28:13;;;;;;;7.22;6.40;;;;;22.80;98292.00;;;;5052123;28;20445;-66
2023/06/30 10:30:41;;;;;;;8.88;7.35;;;;;23.00;98291.00;;;;5052003;28;20037;-66
2023/06/30 10:33:08;;;;;;;7.97;7.20;;;;;22.70;98290.00;;;;5034513;28;20071;-66
2023/06/30 10:35:35;;;;;;;8.57;7.28;;;;;22.70;98292.00;;;;5034345;28;20478;-66
2023/06/30 10:38:02;;;;;;;8.95;8.02;;;;;22.70;98286.00;;;;5055256;28;20037;-66
2023/06/30 10:40:30;;;;;;;9.93;8.50;;;;;22.70;98297.00;;;;5055607;28;20053;-66
2023/06/30 10:42:58;;;;;;;8.85;7.95;;;;;22.70;98299.00;;;;5055870;28;20088;-65
2023/06/30 10:45:29;;;;;;;14.27;8.40;;;;;22.60;98298.00;;;;5055467;28;20045;-65
2023/06/30 10:47:56;;;;;;;9.02;8.13;;;;;22.70;98279.00;;;;5054977;28;20041;-65
2023/06/30 10:50:23;;;;;;;11.10;8.95;;;;;22.80;98287.00;;;;5055082;28;20044;-65
2023/06/30 10:52:52;;;;;;;10.30;9.35;;;;;23.00;98280.00;;;;5055148;28;20095;-64
2023/06/30 10:55:26;;;;;;;10.90;9.70;;;;;23.40;98270.00;;;;5055029;28;20041;-65
2023/06/30 10:57:54;;;;;;;10.02;9.02;;;;;23.40;98278.00;;;;5054952;28;20052;-65
2023/06/30 11:00:29;;;;;;;12.73;9.70;;;;;23.30;98284.00;;;;5053530;28;20048;-65
2023/06/30 11:02:59;;;;;;;12.07;10.05;;;;;23.10;98294.00;;;;5055389;28;20041;-65
2023/06/30 11:05:29;;;;;;;11.75;10.10;;;;;22.80;98299.00;;;;5053844;28;20049;-65
2023/06/30 11:08:02;;;;;;;11.43;10.18;;;;;22.70;98287.00;;;;5054700;28;20068;-65
2023/06/30 11:10:45;;;;;;;12.37;10.20;;;;;22.60;98284.00;;;;5054929;28;20072;-65
2023/06/30 11:13:12;;;;;;;11.57;10.10;;;;;22.50;98289.00;;;;5055346;28;20041;-65
2023/06/30 11:15:42;;;;;;;14.75;12.02;;;;;22.40;98283.00;;;;5054835;28;20080;-65
2023/06/30 11:18:18;;;;;;;12.40;10.63;;;;;22.40;98280.00;;;;5054863;28;20060;-66
2023/06/30 11:21:00;;;;;;;15.38;11.65;;;;;22.70;98270.00;;;;5054412;28;20119;-66
2023/06/30 11:23:28;;;;;;;12.60;10.63;;;;;23.00;98278.00;;;;5054221;28;20078;-65
2023/06/30 11:25:59;;;;;;;11.43;10.23;;;;;22.80;98270.00;;;;5054499;28;20041;-65
2023/06/30 11:28:26;;;;;;;12.23;10.23;;;;;22.80;98265.00;;;;5054316;28;20159;-65
2023/06/30 11:30:53;;;;;;;11.27;9.90;;;;;22.80;98268.00;;;;5052899;28;20107;-65
2023/06/30 11:33:20;;;;;;;11.93;9.98;;;;;23.10;98280.00;;;;5053051;28;20053;-65
2023/06/30 11:35:59;;;;;;;10.82;9.73;;;;;23.30;98274.00;;;;5052837;28;20052;-64
2023/06/30 11:38:26;;;;;;;13.02;9.68;;;;;23.50;98283.00;;;;5052860;28;20414;-64
2023/06/30 11:40:52;;;;;;;11.50;9.63;;;;;23.90;98269.00;;;;5052753;28;20136;-64
2023/06/30 11:43:22;;;;;;;9.98;8.70;;;;;24.40;98262.00;;;;5054118;28;20494;-65
2023/06/30 11:45:59;;;;;;;11.65;9.07;;;;;24.80;98260.00;;;;5053994;28;20056;-65
2023/06/30 11:48:37;;;;;;;9.25;8.23;;;;;25.00;98256.00;;;;5052501;28;20049;-65
2023/06/30 11:51:04;;;;;;;9.85;8.57;;;;;25.10;98268.00;;;;5053820;28;20047;-65
2023/06/30 11:53:31;;;;;;;11.18;9.25;;;;;25.20;98257.00;;;;5052851;28;20044;-65
2023/06/30 11:55:58;;;;;;;8.93;8.00;;;;;25.20;98258.00;;;;5053609;28;20055;-65
2023/06/30 11:58:25;;;;;;;10.40;8.63;;;;;25.00;98257.00;;;;5053888;28;20397;-65
2023/06/30 12:00:51;;;;;;;9.65;8.65;;;;;24.90;98249.00;;;;5053359;28;20520;-65
2023/06/30 12:03:18;;;;;;;9.70;8.70;;;;;24.90;98249.00;;;;5053753;28;20168;-65
2023/06/30 12:06:05;;;;;;;10.02;8.82;;;;;24.90;98258.00;;;;5035952;28;20098;-65
2023/06/30 12:08:35;;;;;;;10.82;8.52;;;;;24.50;98252.00;;;;5035747;28;20540;-65
2023/06/30 12:11:06;;;;;;;8.43;7.63;;;;;24.70;98253.00;;;;5052390;28;20068;-66